Etusivu
METAR-TAF:

METAR-TAF

Lentoasemat :

Oujda, Marokko

Leveyspiiri: 34-47N, Pituuspiiri: 001-56W, korkeus merenpinnasta: 468 m

Tämänhetkinen sää

Tämä raportti tehtiin 25 minuuttia sitten, kello 02.00 UTC
Tuuli 5 kn etelästä/kaakosta
Lämpötila 13°C
Kosteus 82%
Ilmanpaine 1020 hPa
Näkyvyys 10 km tai enemmän
ei pilviä alle 1500 m:ssä eikä cumulonimbus-pilviä

METAR: GMFO 180200Z 16005KT CAVOK 13/10 Q1020 NOSIG

Aika: 03:25 (02:25 UTC)

Sääennuste

Tämä raportti tehtiin 3 tuntia ja 25 minuuttia sitten, kello 23.00 UTC
Ennuste voimassa 18. päivästä klo 00 UTC - 19. päivään klo 06 UTC
Tuuli 4 kn etelästä/lounaasta
Näkyvyys 10 km tai enemmän
ei pilviä alle 1500 m:ssä eikä cumulonimbus-pilviä
Tulossa
18. päivästä klo 14 UTC - 18. päivään klo 18 UTC
Tuuli 16 kn luoteesta

TAF: GMFO 172300Z 1800/1906 20004KT CAVOK BECMG 1814/1818 32016KT

Säähavainnot ja -ennusteet yli 4000 lentoasemalta (METAR- ja TAF-raportit).

Käytössä olevat sääasemat on merkitty karttaan keltaisilla ja punaisilla pisteillä.

Aseta hiiri pisteen päälle nähdäksesi sääaseman nimen.

Klikkaa sitten nähdäksesi säähavainnot ja -ennusteet.

Kartan vaihtaminen: klikkaa mustalla rastilla varustettuja vihreitä pisteitä, niin voit zoomata sisään; viivalla varustettua vihreää pistettä, niin voit zoomata ulos tai vihreitä nuolia, niin pääset viereisille kartoille.


METAR-TAF: